sensor_id;sensor_type;location;lat;lon;timestamp;temperature;humidity
18888;DHT22;9576;47.792;9.628;2022-10-16T00:01:48;12.70;99.90
18888;DHT22;9576;47.792;9.628;2022-10-16T00:04:50;12.70;99.90
18888;DHT22;9576;47.792;9.628;2022-10-16T00:07:54;12.70;99.90
18888;DHT22;9576;47.792;9.628;2022-10-16T00:11:00;12.60;99.90
18888;DHT22;9576;47.792;9.628;2022-10-16T00:14:04;12.70;99.90
18888;DHT22;9576;47.792;9.628;2022-10-16T00:17:06;12.60;99.90
18888;DHT22;9576;47.792;9.628;2022-10-16T00:20:08;12.60;99.90
18888;DHT22;9576;47.792;9.628;2022-10-16T00:23:12;12.60;99.90
18888;DHT22;9576;47.792;9.628;2022-10-16T00:26:17;12.60;99.90
18888;DHT22;9576;47.792;9.628;2022-10-16T00:29:19;12.50;99.90
18888;DHT22;9576;47.792;9.628;2022-10-16T00:32:21;12.50;99.90
18888;DHT22;9576;47.792;9.628;2022-10-16T00:35:23;12.60;99.90
18888;DHT22;9576;47.792;9.628;2022-10-16T00:38:26;12.60;99.90
18888;DHT22;9576;47.792;9.628;2022-10-16T00:41:29;12.60;99.90
18888;DHT22;9576;47.792;9.628;2022-10-16T00:44:47;12.50;99.90
18888;DHT22;9576;47.792;9.628;2022-10-16T00:47:51;12.50;99.90
18888;DHT22;9576;47.792;9.628;2022-10-16T00:50:54;12.50;99.90
18888;DHT22;9576;47.792;9.628;2022-10-16T00:53:59;12.30;99.90
18888;DHT22;9576;47.792;9.628;2022-10-16T00:57:03;12.30;99.90
18888;DHT22;9576;47.792;9.628;2022-10-16T01:00:06;12.30;99.90
18888;DHT22;9576;47.792;9.628;2022-10-16T01:03:23;12.40;99.90
18888;DHT22;9576;47.792;9.628;2022-10-16T01:06:32;12.50;99.90
18888;DHT22;9576;47.792;9.628;2022-10-16T01:09:47;12.50;99.90
18888;DHT22;9576;47.792;9.628;2022-10-16T01:12:57;12.50;99.90
18888;DHT22;9576;47.792;9.628;2022-10-16T01:16:06;12.50;99.90
18888;DHT22;9576;47.792;9.628;2022-10-16T01:19:14;12.60;99.90
18888;DHT22;9576;47.792;9.628;2022-10-16T01:22:19;12.60;99.90
18888;DHT22;9576;47.792;9.628;2022-10-16T01:25:31;12.60;99.90
18888;DHT22;9576;47.792;9.628;2022-10-16T01:28:44;12.60;99.90
18888;DHT22;9576;47.792;9.628;2022-10-16T01:31:50;12.60;99.90
18888;DHT22;9576;47.792;9.628;2022-10-16T01:35:00;12.60;99.90
18888;DHT22;9576;47.792;9.628;2022-10-16T01:38:04;12.70;99.90
18888;DHT22;9576;47.792;9.628;2022-10-16T01:41:13;12.60;99.90
18888;DHT22;9576;47.792;9.628;2022-10-16T01:44:20;12.60;99.90
18888;DHT22;9576;47.792;9.628;2022-10-16T01:47:25;12.60;99.90
18888;DHT22;9576;47.792;9.628;2022-10-16T01:50:28;12.60;99.90
18888;DHT22;9576;47.792;9.628;2022-10-16T01:53:31;12.60;99.90
18888;DHT22;9576;47.792;9.628;2022-10-16T01:56:34;12.60;99.90
18888;DHT22;9576;47.792;9.628;2022-10-16T01:59:40;12.70;99.90
18888;DHT22;9576;47.792;9.628;2022-10-16T02:02:47;12.60;99.90
18888;DHT22;9576;47.792;9.628;2022-10-16T02:05:52;12.70;99.90
18888;DHT22;9576;47.792;9.628;2022-10-16T02:08:55;12.70;99.90
18888;DHT22;9576;47.792;9.628;2022-10-16T02:12:00;12.70;99.90
18888;DHT22;9576;47.792;9.628;2022-10-16T02:15:05;12.70;99.90
18888;DHT22;9576;47.792;9.628;2022-10-16T02:18:08;12.70;99.90
18888;DHT22;9576;47.792;9.628;2022-10-16T02:21:15;12.80;99.90
18888;DHT22;9576;47.792;9.628;2022-10-16T02:24:22;12.60;99.90
18888;DHT22;9576;47.792;9.628;2022-10-16T02:27:29;12.50;99.90
18888;DHT22;9576;47.792;9.628;2022-10-16T02:30:38;12.50;99.90
18888;DHT22;9576;47.792;9.628;2022-10-16T02:33:42;12.50;99.90
18888;DHT22;9576;47.792;9.628;2022-10-16T02:36:45;12.60;99.90
18888;DHT22;9576;47.792;9.628;2022-10-16T02:39:47;12.60;99.90
18888;DHT22;9576;47.792;9.628;2022-10-16T02:42:51;12.60;99.90
18888;DHT22;9576;47.792;9.628;2022-10-16T02:45:54;12.70;99.90
18888;DHT22;9576;47.792;9.628;2022-10-16T02:48:56;12.70;99.90
18888;DHT22;9576;47.792;9.628;2022-10-16T02:51:58;12.60;99.90
18888;DHT22;9576;47.792;9.628;2022-10-16T02:55:00;12.60;99.90
18888;DHT22;9576;47.792;9.628;2022-10-16T02:58:02;12.50;99.90
18888;DHT22;9576;47.792;9.628;2022-10-16T03:01:05;12.50;99.90
18888;DHT22;9576;47.792;9.628;2022-10-16T03:04:07;12.50;99.90
18888;DHT22;9576;47.792;9.628;2022-10-16T03:07:09;12.50;99.90
18888;DHT22;9576;47.792;9.628;2022-10-16T03:10:11;12.50;99.90
18888;DHT22;9576;47.792;9.628;2022-10-16T03:13:13;12.50;99.90
18888;DHT22;9576;47.792;9.628;2022-10-16T03:16:16;12.50;99.90
18888;DHT22;9576;47.792;9.628;2022-10-16T03:19:18;12.40;99.90
18888;DHT22;9576;47.792;9.628;2022-10-16T03:22:20;12.30;99.90
18888;DHT22;9576;47.792;9.628;2022-10-16T03:25:22;12.20;99.90
18888;DHT22;9576;47.792;9.628;2022-10-16T03:28:24;12.00;99.90
18888;DHT22;9576;47.792;9.628;2022-10-16T03:31:27;12.10;99.90
18888;DHT22;9576;47.792;9.628;2022-10-16T03:34:29;12.10;99.90
18888;DHT22;9576;47.792;9.628;2022-10-16T03:37:31;12.20;99.90
18888;DHT22;9576;47.792;9.628;2022-10-16T03:40:33;12.30;99.90
18888;DHT22;9576;47.792;9.628;2022-10-16T03:43:35;12.30;99.90
18888;DHT22;9576;47.792;9.628;2022-10-16T03:46:38;12.40;99.90
18888;DHT22;9576;47.792;9.628;2022-10-16T03:49:40;12.30;99.90
18888;DHT22;9576;47.792;9.628;2022-10-16T03:52:42;12.20;99.90
18888;DHT22;9576;47.792;9.628;2022-10-16T03:55:44;12.20;99.90
18888;DHT22;9576;47.792;9.628;2022-10-16T03:58:46;12.20;99.90
18888;DHT22;9576;47.792;9.628;2022-10-16T04:01:50;12.20;99.90
18888;DHT22;9576;47.792;9.628;2022-10-16T04:04:51;12.30;99.90
18888;DHT22;9576;47.792;9.628;2022-10-16T04:07:53;12.30;99.90
18888;DHT22;9576;47.792;9.628;2022-10-16T04:10:55;12.20;99.90
18888;DHT22;9576;47.792;9.628;2022-10-16T04:13:57;12.30;99.90
18888;DHT22;9576;47.792;9.628;2022-10-16T04:17:00;12.20;99.90
18888;DHT22;9576;47.792;9.628;2022-10-16T04:20:03;12.20;99.90
18888;DHT22;9576;47.792;9.628;2022-10-16T04:23:05;12.30;99.90
18888;DHT22;9576;47.792;9.628;2022-10-16T04:26:07;12.20;99.90
18888;DHT22;9576;47.792;9.628;2022-10-16T04:29:10;12.10;99.90
18888;DHT22;9576;47.792;9.628;2022-10-16T04:32:14;12.10;99.90
18888;DHT22;9576;47.792;9.628;2022-10-16T04:35:16;12.10;99.90
18888;DHT22;9576;47.792;9.628;2022-10-16T04:38:18;12.10;99.90
18888;DHT22;9576;47.792;9.628;2022-10-16T04:41:20;12.10;99.90
18888;DHT22;9576;47.792;9.628;2022-10-16T04:44:22;12.10;99.90
18888;DHT22;9576;47.792;9.628;2022-10-16T04:47:25;12.10;99.90
18888;DHT22;9576;47.792;9.628;2022-10-16T04:50:27;12.10;99.90
18888;DHT22;9576;47.792;9.628;2022-10-16T04:53:29;12.10;99.90
18888;DHT22;9576;47.792;9.628;2022-10-16T04:56:31;12.10;99.90
18888;DHT22;9576;47.792;9.628;2022-10-16T04:59:33;12.00;99.90
18888;DHT22;9576;47.792;9.628;2022-10-16T05:02:36;12.00;99.90
18888;DHT22;9576;47.792;9.628;2022-10-16T05:05:42;12.00;99.90
18888;DHT22;9576;47.792;9.628;2022-10-16T05:08:45;12.00;99.90
18888;DHT22;9576;47.792;9.628;2022-10-16T05:11:46;12.10;99.90
18888;DHT22;9576;47.792;9.628;2022-10-16T05:14:48;12.10;99.90
18888;DHT22;9576;47.792;9.628;2022-10-16T05:17:53;12.10;99.90
18888;DHT22;9576;47.792;9.628;2022-10-16T05:20:55;12.10;99.90
18888;DHT22;9576;47.792;9.628;2022-10-16T05:23:57;12.20;99.90
18888;DHT22;9576;47.792;9.628;2022-10-16T05:26:59;12.20;99.90
18888;DHT22;9576;47.792;9.628;2022-10-16T05:30:01;12.20;99.90
18888;DHT22;9576;47.792;9.628;2022-10-16T05:33:05;12.20;99.90
18888;DHT22;9576;47.792;9.628;2022-10-16T05:36:08;12.20;99.90
18888;DHT22;9576;47.792;9.628;2022-10-16T05:39:11;12.20;99.90
18888;DHT22;9576;47.792;9.628;2022-10-16T05:42:13;12.20;99.90
18888;DHT22;9576;47.792;9.628;2022-10-16T05:45:15;12.30;99.90
18888;DHT22;9576;47.792;9.628;2022-10-16T05:48:18;12.30;99.90
18888;DHT22;9576;47.792;9.628;2022-10-16T05:51:20;12.30;99.90
18888;DHT22;9576;47.792;9.628;2022-10-16T05:54:22;12.30;99.90
18888;DHT22;9576;47.792;9.628;2022-10-16T05:57:24;12.30;99.90
18888;DHT22;9576;47.792;9.628;2022-10-16T06:00:26;12.40;99.90
18888;DHT22;9576;47.792;9.628;2022-10-16T06:03:29;12.30;99.90
18888;DHT22;9576;47.792;9.628;2022-10-16T06:06:31;12.30;99.90
18888;DHT22;9576;47.792;9.628;2022-10-16T06:09:33;12.30;99.90
18888;DHT22;9576;47.792;9.628;2022-10-16T06:12:35;12.30;99.90
18888;DHT22;9576;47.792;9.628;2022-10-16T06:15:37;12.30;99.90
18888;DHT22;9576;47.792;9.628;2022-10-16T06:18:43;12.20;99.90
18888;DHT22;9576;47.792;9.628;2022-10-16T06:21:45;12.30;99.90
18888;DHT22;9576;47.792;9.628;2022-10-16T06:24:47;12.50;99.90
18888;DHT22;9576;47.792;9.628;2022-10-16T06:27:50;12.50;99.90
18888;DHT22;9576;47.792;9.628;2022-10-16T06:30:58;12.60;99.90
18888;DHT22;9576;47.792;9.628;2022-10-16T06:34:02;12.70;99.90
18888;DHT22;9576;47.792;9.628;2022-10-16T06:37:06;12.70;99.90
18888;DHT22;9576;47.792;9.628;2022-10-16T06:40:08;12.80;99.90
18888;DHT22;9576;47.792;9.628;2022-10-16T06:43:10;12.90;99.90
18888;DHT22;9576;47.792;9.628;2022-10-16T06:46:13;12.80;99.90
18888;DHT22;9576;47.792;9.628;2022-10-16T06:49:17;12.80;99.90
18888;DHT22;9576;47.792;9.628;2022-10-16T06:52:23;13.00;99.90
18888;DHT22;9576;47.792;9.628;2022-10-16T06:55:25;13.10;99.90
18888;DHT22;9576;47.792;9.628;2022-10-16T06:58:26;13.20;99.90
18888;DHT22;9576;47.792;9.628;2022-10-16T07:01:29;13.30;99.90
18888;DHT22;9576;47.792;9.628;2022-10-16T07:04:32;13.30;99.90
18888;DHT22;9576;47.792;9.628;2022-10-16T07:07:34;13.30;99.90
18888;DHT22;9576;47.792;9.628;2022-10-16T07:10:36;13.30;99.90
18888;DHT22;9576;47.792;9.628;2022-10-16T07:13:39;13.40;99.90
18888;DHT22;9576;47.792;9.628;2022-10-16T07:16:41;13.50;99.90
18888;DHT22;9576;47.792;9.628;2022-10-16T07:19:45;13.50;99.90
18888;DHT22;9576;47.792;9.628;2022-10-16T07:22:47;13.60;99.90
18888;DHT22;9576;47.792;9.628;2022-10-16T07:25:53;13.70;99.90
18888;DHT22;9576;47.792;9.628;2022-10-16T07:28:56;13.80;99.90
18888;DHT22;9576;47.792;9.628;2022-10-16T07:31:58;13.90;99.90
18888;DHT22;9576;47.792;9.628;2022-10-16T07:35:01;13.90;99.90
18888;DHT22;9576;47.792;9.628;2022-10-16T07:38:03;13.90;99.90
18888;DHT22;9576;47.792;9.628;2022-10-16T07:41:06;14.00;99.90
18888;DHT22;9576;47.792;9.628;2022-10-16T07:44:08;14.10;99.90
18888;DHT22;9576;47.792;9.628;2022-10-16T07:47:10;14.10;99.90
18888;DHT22;9576;47.792;9.628;2022-10-16T07:50:13;14.10;99.90
18888;DHT22;9576;47.792;9.628;2022-10-16T07:53:16;14.20;99.90
18888;DHT22;9576;47.792;9.628;2022-10-16T07:56:19;14.30;99.90
18888;DHT22;9576;47.792;9.628;2022-10-16T07:59:21;14.40;99.90
18888;DHT22;9576;47.792;9.628;2022-10-16T08:02:23;14.40;99.90
18888;DHT22;9576;47.792;9.628;2022-10-16T08:05:27;14.60;99.90
18888;DHT22;9576;47.792;9.628;2022-10-16T08:08:29;14.70;99.90
18888;DHT22;9576;47.792;9.628;2022-10-16T08:11:31;14.80;99.90
18888;DHT22;9576;47.792;9.628;2022-10-16T08:14:33;14.80;99.90
18888;DHT22;9576;47.792;9.628;2022-10-16T08:17:35;14.80;99.90
18888;DHT22;9576;47.792;9.628;2022-10-16T08:20:39;15.00;99.90
18888;DHT22;9576;47.792;9.628;2022-10-16T08:23:41;15.00;99.90
18888;DHT22;9576;47.792;9.628;2022-10-16T08:26:44;15.20;99.90
18888;DHT22;9576;47.792;9.628;2022-10-16T08:29:48;15.20;99.90
18888;DHT22;9576;47.792;9.628;2022-10-16T08:32:49;15.30;99.90
18888;DHT22;9576;47.792;9.628;2022-10-16T08:35:53;15.60;99.90
18888;DHT22;9576;47.792;9.628;2022-10-16T08:38:55;15.70;99.90
18888;DHT22;9576;47.792;9.628;2022-10-16T08:42:15;15.80;99.90
18888;DHT22;9576;47.792;9.628;2022-10-16T08:45:29;16.00;99.90
18888;DHT22;9576;47.792;9.628;2022-10-16T08:48:40;16.20;99.90
18888;DHT22;9576;47.792;9.628;2022-10-16T08:51:46;16.40;99.90
18888;DHT22;9576;47.792;9.628;2022-10-16T08:54:54;16.60;99.90
18888;DHT22;9576;47.792;9.628;2022-10-16T08:57:57;16.70;99.90
18888;DHT22;9576;47.792;9.628;2022-10-16T09:01:01;16.90;99.90
18888;DHT22;9576;47.792;9.628;2022-10-16T09:04:22;16.90;99.90
18888;DHT22;9576;47.792;9.628;2022-10-16T09:07:32;17.00;99.90
18888;DHT22;9576;47.792;9.628;2022-10-16T09:10:44;17.10;99.90
18888;DHT22;9576;47.792;9.628;2022-10-16T09:13:55;17.30;99.90
18888;DHT22;9576;47.792;9.628;2022-10-16T09:17:14;17.50;99.90
18888;DHT22;9576;47.792;9.628;2022-10-16T09:20:26;17.80;99.90
18888;DHT22;9576;47.792;9.628;2022-10-16T09:23:34;18.00;99.90
18888;DHT22;9576;47.792;9.628;2022-10-16T09:26:36;18.30;99.90
18888;DHT22;9576;47.792;9.628;2022-10-16T09:29:38;18.50;99.90
18888;DHT22;9576;47.792;9.628;2022-10-16T09:32:42;18.70;99.90
18888;DHT22;9576;47.792;9.628;2022-10-16T09:35:45;18.70;99.90
18888;DHT22;9576;47.792;9.628;2022-10-16T09:38:50;18.90;99.90
18888;DHT22;9576;47.792;9.628;2022-10-16T09:41:55;19.10;99.90
18888;DHT22;9576;47.792;9.628;2022-10-16T09:44:58;19.40;99.90
18888;DHT22;9576;47.792;9.628;2022-10-16T09:48:10;19.70;99.90
18888;DHT22;9576;47.792;9.628;2022-10-16T09:51:19;19.90;99.90
18888;DHT22;9576;47.792;9.628;2022-10-16T09:54:22;20.10;99.90
18888;DHT22;9576;47.792;9.628;2022-10-16T09:57:25;20.00;99.90
18888;DHT22;9576;47.792;9.628;2022-10-16T10:00:27;19.90;99.90
18888;DHT22;9576;47.792;9.628;2022-10-16T10:03:36;19.90;99.90
18888;DHT22;9576;47.792;9.628;2022-10-16T10:06:43;19.80;99.90
18888;DHT22;9576;47.792;9.628;2022-10-16T10:09:47;19.70;99.90
18888;DHT22;9576;47.792;9.628;2022-10-16T10:12:49;19.70;99.90
18888;DHT22;9576;47.792;9.628;2022-10-16T10:15:51;19.90;99.90
18888;DHT22;9576;47.792;9.628;2022-10-16T10:18:58;20.00;99.90
18888;DHT22;9576;47.792;9.628;2022-10-16T10:22:00;20.10;99.90
18888;DHT22;9576;47.792;9.628;2022-10-16T10:25:30;20.30;99.90
18888;DHT22;9576;47.792;9.628;2022-10-16T10:28:51;20.50;99.90
18888;DHT22;9576;47.792;9.628;2022-10-16T10:32:02;20.70;99.90
18888;DHT22;9576;47.792;9.628;2022-10-16T10:35:14;20.80;99.90
18888;DHT22;9576;47.792;9.628;2022-10-16T10:38:30;21.10;99.90
18888;DHT22;9576;47.792;9.628;2022-10-16T10:41:53;21.10;99.90
18888;DHT22;9576;47.792;9.628;2022-10-16T10:45:03;21.10;99.90
18888;DHT22;9576;47.792;9.628;2022-10-16T10:48:32;21.20;99.90
18888;DHT22;9576;47.792;9.628;2022-10-16T10:51:45;21.20;99.90
18888;DHT22;9576;47.792;9.628;2022-10-16T10:54:53;21.30;99.90
18888;DHT22;9576;47.792;9.628;2022-10-16T10:58:15;21.40;99.90
18888;DHT22;9576;47.792;9.628;2022-10-16T11:01:24;21.30;99.90
18888;DHT22;9576;47.792;9.628;2022-10-16T11:04:38;21.30;99.90
18888;DHT22;9576;47.792;9.628;2022-10-16T11:07:48;21.20;99.90
18888;DHT22;9576;47.792;9.628;2022-10-16T11:10:54;21.20;99.90
18888;DHT22;9576;47.792;9.628;2022-10-16T11:14:02;21.30;99.90
18888;DHT22;9576;47.792;9.628;2022-10-16T11:17:11;21.60;99.90
18888;DHT22;9576;47.792;9.628;2022-10-16T11:20:16;21.80;99.90
18888;DHT22;9576;47.792;9.628;2022-10-16T11:23:24;22.20;99.90
18888;DHT22;9576;47.792;9.628;2022-10-16T11:26:30;22.40;99.90
18888;DHT22;9576;47.792;9.628;2022-10-16T11:29:44;22.50;99.90
18888;DHT22;9576;47.792;9.628;2022-10-16T11:33:04;22.70;99.90
18888;DHT22;9576;47.792;9.628;2022-10-16T11:36:12;23.00;99.90
18888;DHT22;9576;47.792;9.628;2022-10-16T11:39:21;23.10;99.90
18888;DHT22;9576;47.792;9.628;2022-10-16T11:42:32;23.30;99.90
18888;DHT22;9576;47.792;9.628;2022-10-16T11:45:42;23.50;99.90
18888;DHT22;9576;47.792;9.628;2022-10-16T11:48:49;23.80;99.90
18888;DHT22;9576;47.792;9.628;2022-10-16T11:51:59;23.90;99.90
18888;DHT22;9576;47.792;9.628;2022-10-16T11:55:06;23.90;99.90
18888;DHT22;9576;47.792;9.628;2022-10-16T11:58:22;24.00;99.90
18888;DHT22;9576;47.792;9.628;2022-10-16T12:01:31;24.20;99.90
18888;DHT22;9576;47.792;9.628;2022-10-16T12:04:39;24.40;99.90
18888;DHT22;9576;47.792;9.628;2022-10-16T12:07:51;24.60;99.90
18888;DHT22;9576;47.792;9.628;2022-10-16T12:11:06;24.90;99.90
18888;DHT22;9576;47.792;9.628;2022-10-16T12:14:35;25.30;99.90
18888;DHT22;9576;47.792;9.628;2022-10-16T12:17:39;25.40;99.90
18888;DHT22;9576;47.792;9.628;2022-10-16T12:20:41;25.70;99.90
18888;DHT22;9576;47.792;9.628;2022-10-16T12:23:48;26.00;99.90
18888;DHT22;9576;47.792;9.628;2022-10-16T12:26:51;26.30;99.90
18888;DHT22;9576;47.792;9.628;2022-10-16T12:29:55;26.30;99.90
18888;DHT22;9576;47.792;9.628;2022-10-16T12:33:01;26.80;99.90
18888;DHT22;9576;47.792;9.628;2022-10-16T12:36:07;26.90;99.90
18888;DHT22;9576;47.792;9.628;2022-10-16T12:39:20;26.30;99.90
18888;DHT22;9576;47.792;9.628;2022-10-16T12:42:32;25.90;99.90
18888;DHT22;9576;47.792;9.628;2022-10-16T12:45:35;25.80;99.90
18888;DHT22;9576;47.792;9.628;2022-10-16T12:48:39;25.60;99.90
18888;DHT22;9576;47.792;9.628;2022-10-16T12:51:42;25.30;99.90
18888;DHT22;9576;47.792;9.628;2022-10-16T12:54:44;25.20;99.90
18888;DHT22;9576;47.792;9.628;2022-10-16T12:58:00;25.00;99.90
18888;DHT22;9576;47.792;9.628;2022-10-16T13:01:15;25.20;99.90
18888;DHT22;9576;47.792;9.628;2022-10-16T13:04:52;25.70;99.90
18888;DHT22;9576;47.792;9.628;2022-10-16T13:08:07;26.10;99.90
18888;DHT22;9576;47.792;9.628;2022-10-16T13:11:19;26.60;99.90
18888;DHT22;9576;47.792;9.628;2022-10-16T13:14:47;27.10;99.90
18888;DHT22;9576;47.792;9.628;2022-10-16T13:17:59;27.50;99.90
18888;DHT22;9576;47.792;9.628;2022-10-16T13:21:18;27.90;99.90
18888;DHT22;9576;47.792;9.628;2022-10-16T13:24:30;28.00;99.90
18888;DHT22;9576;47.792;9.628;2022-10-16T13:27:41;28.60;99.90
18888;DHT22;9576;47.792;9.628;2022-10-16T13:30:51;29.30;99.90
18888;DHT22;9576;47.792;9.628;2022-10-16T13:33:55;29.90;99.90
18888;DHT22;9576;47.792;9.628;2022-10-16T13:37:00;30.30;99.90
18888;DHT22;9576;47.792;9.628;2022-10-16T13:40:11;30.60;99.90
18888;DHT22;9576;47.792;9.628;2022-10-16T13:43:22;30.90;99.90
18888;DHT22;9576;47.792;9.628;2022-10-16T13:46:25;31.10;99.90
18888;DHT22;9576;47.792;9.628;2022-10-16T13:49:27;31.20;99.90
18888;DHT22;9576;47.792;9.628;2022-10-16T13:52:31;31.50;99.90
18888;DHT22;9576;47.792;9.628;2022-10-16T13:55:33;31.30;99.90
18888;DHT22;9576;47.792;9.628;2022-10-16T13:58:35;31.00;99.90
18888;DHT22;9576;47.792;9.628;2022-10-16T14:01:41;30.90;99.90
18888;DHT22;9576;47.792;9.628;2022-10-16T14:04:44;30.60;99.90
18888;DHT22;9576;47.792;9.628;2022-10-16T14:07:50;30.10;99.90
18888;DHT22;9576;47.792;9.628;2022-10-16T14:10:55;29.80;99.90
18888;DHT22;9576;47.792;9.628;2022-10-16T14:13:58;30.00;99.90
18888;DHT22;9576;47.792;9.628;2022-10-16T14:17:00;30.80;99.90
18888;DHT22;9576;47.792;9.628;2022-10-16T14:20:05;31.50;99.90
18888;DHT22;9576;47.792;9.628;2022-10-16T14:23:20;32.00;99.90
18888;DHT22;9576;47.792;9.628;2022-10-16T14:26:24;32.30;99.90
18888;DHT22;9576;47.792;9.628;2022-10-16T14:29:29;32.50;99.70
18888;DHT22;9576;47.792;9.628;2022-10-16T14:32:32;32.70;99.90
18888;DHT22;9576;47.792;9.628;2022-10-16T14:35:35;32.60;99.90
18888;DHT22;9576;47.792;9.628;2022-10-16T14:38:40;32.30;99.10
18888;DHT22;9576;47.792;9.628;2022-10-16T14:41:45;31.80;99.40
18888;DHT22;9576;47.792;9.628;2022-10-16T14:44:48;30.90;99.40
18888;DHT22;9576;47.792;9.628;2022-10-16T14:47:54;29.80;99.90
18888;DHT22;9576;47.792;9.628;2022-10-16T14:50:57;28.60;99.90
18888;DHT22;9576;47.792;9.628;2022-10-16T14:54:00;27.60;99.90
18888;DHT22;9576;47.792;9.628;2022-10-16T14:57:03;27.00;99.90
18888;DHT22;9576;47.792;9.628;2022-10-16T15:00:14;26.50;99.90
18888;DHT22;9576;47.792;9.628;2022-10-16T15:03:17;26.00;99.90
18888;DHT22;9576;47.792;9.628;2022-10-16T15:06:19;25.80;99.90
18888;DHT22;9576;47.792;9.628;2022-10-16T15:09:22;25.60;99.90
18888;DHT22;9576;47.792;9.628;2022-10-16T15:12:24;25.30;99.90
18888;DHT22;9576;47.792;9.628;2022-10-16T15:15:45;25.10;99.90
18888;DHT22;9576;47.792;9.628;2022-10-16T15:18:47;24.90;99.90
18888;DHT22;9576;47.792;9.628;2022-10-16T15:21:49;24.80;99.90
18888;DHT22;9576;47.792;9.628;2022-10-16T15:24:52;24.80;99.90
18888;DHT22;9576;47.792;9.628;2022-10-16T15:27:54;24.70;99.90
18888;DHT22;9576;47.792;9.628;2022-10-16T15:30:57;24.60;99.90
18888;DHT22;9576;47.792;9.628;2022-10-16T15:33:59;24.40;99.90
18888;DHT22;9576;47.792;9.628;2022-10-16T15:37:04;24.20;99.90
18888;DHT22;9576;47.792;9.628;2022-10-16T15:40:09;24.00;99.90
18888;DHT22;9576;47.792;9.628;2022-10-16T15:43:11;23.90;99.90
18888;DHT22;9576;47.792;9.628;2022-10-16T15:46:13;23.70;99.90
18888;DHT22;9576;47.792;9.628;2022-10-16T15:49:15;23.50;99.90
18888;DHT22;9576;47.792;9.628;2022-10-16T15:52:17;23.20;99.90
18888;DHT22;9576;47.792;9.628;2022-10-16T15:55:20;23.00;99.90
18888;DHT22;9576;47.792;9.628;2022-10-16T15:58:22;22.70;99.90
18888;DHT22;9576;47.792;9.628;2022-10-16T16:01:24;22.40;99.90
18888;DHT22;9576;47.792;9.628;2022-10-16T16:04:29;22.10;99.90
18888;DHT22;9576;47.792;9.628;2022-10-16T16:07:32;21.90;99.90
18888;DHT22;9576;47.792;9.628;2022-10-16T16:10:35;21.60;99.90
18888;DHT22;9576;47.792;9.628;2022-10-16T16:13:37;21.30;99.90
18888;DHT22;9576;47.792;9.628;2022-10-16T16:16:39;21.10;99.90
18888;DHT22;9576;47.792;9.628;2022-10-16T16:19:41;20.80;99.90
18888;DHT22;9576;47.792;9.628;2022-10-16T16:22:43;20.60;99.90
18888;DHT22;9576;47.792;9.628;2022-10-16T16:26:02;20.30;99.90
18888;DHT22;9576;47.792;9.628;2022-10-16T16:29:04;20.00;99.90
18888;DHT22;9576;47.792;9.628;2022-10-16T16:32:06;19.70;99.90
18888;DHT22;9576;47.792;9.628;2022-10-16T16:35:08;19.50;99.90
18888;DHT22;9576;47.792;9.628;2022-10-16T16:38:10;19.30;99.90
18888;DHT22;9576;47.792;9.628;2022-10-16T16:41:14;19.00;99.90
18888;DHT22;9576;47.792;9.628;2022-10-16T16:44:17;18.80;99.90
18888;DHT22;9576;47.792;9.628;2022-10-16T16:47:19;18.60;99.90
18888;DHT22;9576;47.792;9.628;2022-10-16T16:50:21;18.40;99.90
18888;DHT22;9576;47.792;9.628;2022-10-16T16:53:23;18.20;99.90
18888;DHT22;9576;47.792;9.628;2022-10-16T16:56:26;18.00;99.90
18888;DHT22;9576;47.792;9.628;2022-10-16T16:59:28;17.80;99.90
18888;DHT22;9576;47.792;9.628;2022-10-16T17:02:33;17.60;99.90
18888;DHT22;9576;47.792;9.628;2022-10-16T17:05:35;17.50;99.90
18888;DHT22;9576;47.792;9.628;2022-10-16T17:08:37;17.40;99.90
18888;DHT22;9576;47.792;9.628;2022-10-16T17:11:41;17.30;99.90
18888;DHT22;9576;47.792;9.628;2022-10-16T17:14:45;17.30;99.90
18888;DHT22;9576;47.792;9.628;2022-10-16T17:17:47;17.20;99.90
18888;DHT22;9576;47.792;9.628;2022-10-16T17:20:50;17.10;99.90
18888;DHT22;9576;47.792;9.628;2022-10-16T17:23:52;17.10;99.90
18888;DHT22;9576;47.792;9.628;2022-10-16T17:26:55;16.90;99.90
18888;DHT22;9576;47.792;9.628;2022-10-16T17:29:57;16.80;99.90
18888;DHT22;9576;47.792;9.628;2022-10-16T17:32:59;16.70;99.90
18888;DHT22;9576;47.792;9.628;2022-10-16T17:36:01;16.60;99.90
18888;DHT22;9576;47.792;9.628;2022-10-16T17:39:05;16.60;99.90
18888;DHT22;9576;47.792;9.628;2022-10-16T17:42:09;16.50;99.90
18888;DHT22;9576;47.792;9.628;2022-10-16T17:45:11;16.40;99.90
18888;DHT22;9576;47.792;9.628;2022-10-16T17:48:13;16.30;99.90
18888;DHT22;9576;47.792;9.628;2022-10-16T17:51:16;16.20;99.90
18888;DHT22;9576;47.792;9.628;2022-10-16T17:54:19;16.10;99.90
18888;DHT22;9576;47.792;9.628;2022-10-16T17:57:23;16.10;99.90
18888;DHT22;9576;47.792;9.628;2022-10-16T18:00:25;16.00;99.90
18888;DHT22;9576;47.792;9.628;2022-10-16T18:03:27;16.00;99.90
18888;DHT22;9576;47.792;9.628;2022-10-16T18:06:30;15.90;99.90
18888;DHT22;9576;47.792;9.628;2022-10-16T18:09:32;15.90;99.90
18888;DHT22;9576;47.792;9.628;2022-10-16T18:12:35;15.80;99.90
18888;DHT22;9576;47.792;9.628;2022-10-16T18:15:37;15.70;99.90
18888;DHT22;9576;47.792;9.628;2022-10-16T18:18:40;15.60;99.90
18888;DHT22;9576;47.792;9.628;2022-10-16T18:21:44;15.60;99.90
18888;DHT22;9576;47.792;9.628;2022-10-16T18:24:46;15.50;99.90
18888;DHT22;9576;47.792;9.628;2022-10-16T18:27:49;15.40;99.90
18888;DHT22;9576;47.792;9.628;2022-10-16T18:30:55;15.30;99.90
18888;DHT22;9576;47.792;9.628;2022-10-16T18:33:57;15.20;99.90
18888;DHT22;9576;47.792;9.628;2022-10-16T18:36:59;15.20;99.90
18888;DHT22;9576;47.792;9.628;2022-10-16T18:40:01;15.10;99.90
18888;DHT22;9576;47.792;9.628;2022-10-16T18:43:05;15.00;99.90
18888;DHT22;9576;47.792;9.628;2022-10-16T18:46:09;15.00;99.90
18888;DHT22;9576;47.792;9.628;2022-10-16T18:49:12;14.90;99.90
18888;DHT22;9576;47.792;9.628;2022-10-16T18:52:13;14.90;99.90
18888;DHT22;9576;47.792;9.628;2022-10-16T18:55:16;14.80;99.90
18888;DHT22;9576;47.792;9.628;2022-10-16T18:58:19;14.70;99.90
18888;DHT22;9576;47.792;9.628;2022-10-16T19:01:22;14.70;99.90
18888;DHT22;9576;47.792;9.628;2022-10-16T19:04:24;14.60;99.90
18888;DHT22;9576;47.792;9.628;2022-10-16T19:07:26;14.60;99.90
18888;DHT22;9576;47.792;9.628;2022-10-16T19:10:28;14.60;99.90
18888;DHT22;9576;47.792;9.628;2022-10-16T19:13:32;14.50;99.90
18888;DHT22;9576;47.792;9.628;2022-10-16T19:16:34;14.50;99.90
18888;DHT22;9576;47.792;9.628;2022-10-16T19:19:37;14.40;99.90
18888;DHT22;9576;47.792;9.628;2022-10-16T19:22:39;14.30;99.90
18888;DHT22;9576;47.792;9.628;2022-10-16T19:26:01;14.20;99.90
18888;DHT22;9576;47.792;9.628;2022-10-16T19:29:04;14.20;99.90
18888;DHT22;9576;47.792;9.628;2022-10-16T19:32:06;14.20;99.90
18888;DHT22;9576;47.792;9.628;2022-10-16T19:35:08;14.20;99.90
18888;DHT22;9576;47.792;9.628;2022-10-16T19:38:10;14.10;99.90
18888;DHT22;9576;47.792;9.628;2022-10-16T19:41:14;14.10;99.90
18888;DHT22;9576;47.792;9.628;2022-10-16T19:44:18;14.10;99.90
18888;DHT22;9576;47.792;9.628;2022-10-16T19:47:20;14.10;99.90